createdAt,value
2017-03-16T00:08:02.827Z,25
2017-03-16T00:18:02.837Z,23
2017-03-16T00:28:02.993Z,15
2017-03-16T00:38:02.780Z,17
2017-03-16T00:48:02.897Z,25
2017-03-16T00:58:02.975Z,18
2017-03-16T01:08:03.394Z,21
2017-03-16T01:18:02.813Z,20
2017-03-16T01:28:03.337Z,22
2017-03-16T01:38:03.104Z,18
2017-03-16T01:48:02.905Z,15
2017-03-16T01:58:03.102Z,18
2017-03-16T02:08:02.883Z,13
2017-03-16T02:18:02.902Z,18
2017-03-16T02:28:02.855Z,13
2017-03-16T02:38:02.926Z,19
2017-03-16T02:48:02.944Z,19
2017-03-16T02:58:02.903Z,25
2017-03-16T03:08:03.491Z,18
2017-03-16T03:18:02.858Z,19
2017-03-16T03:28:02.907Z,17
2017-03-16T03:38:02.957Z,17
2017-03-16T03:48:03.090Z,27
2017-03-16T03:58:02.950Z,23
2017-03-16T04:08:02.982Z,16
2017-03-16T04:18:03.035Z,20
2017-03-16T04:28:02.906Z,23
2017-03-16T04:38:02.957Z,20
2017-03-16T04:48:02.957Z,18
2017-03-16T04:58:03.018Z,20
2017-03-16T05:08:02.950Z,24
2017-03-16T05:18:03.060Z,22
2017-03-16T05:28:03.021Z,21
2017-03-16T05:38:03.029Z,23
2017-03-16T05:48:03.041Z,24
2017-03-16T05:58:03.119Z,35
2017-03-16T06:08:03.049Z,19
2017-03-16T06:18:03.015Z,23
2017-03-16T06:28:03.120Z,25
2017-03-16T06:38:03.100Z,26
2017-03-16T06:48:03.032Z,23
2017-03-16T06:58:03.003Z,21
2017-03-16T07:08:03.071Z,28
2017-03-16T07:18:03.042Z,27
2017-03-16T07:28:03.114Z,18
2017-03-16T07:38:03.053Z,27
2017-03-16T07:48:03.130Z,31
2017-03-16T07:58:03.095Z,20
2017-03-16T08:08:03.145Z,23
2017-03-16T08:18:03.130Z,32
2017-03-16T08:28:03.200Z,28
2017-03-16T08:38:03.244Z,24
2017-03-16T08:48:03.290Z,26
2017-03-16T08:58:03.372Z,25
2017-03-16T09:08:03.328Z,27
2017-03-16T09:18:03.173Z,21
2017-03-16T09:28:03.541Z,27
2017-03-16T09:38:03.245Z,23
2017-03-16T09:48:03.346Z,24
2017-03-16T09:58:03.197Z,23
2017-03-16T10:08:03.973Z,26
2017-03-16T10:18:03.650Z,24
2017-03-16T10:28:03.455Z,24
2017-03-16T10:38:03.233Z,27
2017-03-16T10:48:03.550Z,19
2017-03-16T10:58:03.242Z,17
2017-03-16T11:08:03.339Z,13
2017-03-16T11:18:03.307Z,18
2017-03-16T11:28:03.343Z,10
2017-03-16T11:38:03.264Z,10
2017-03-16T11:48:13.166Z,18
2017-03-16T11:58:03.491Z,14
2017-03-16T12:08:03.912Z,18
2017-03-16T12:18:03.385Z,18
2017-03-16T12:28:03.343Z,18
2017-03-16T12:38:03.770Z,18
2017-03-16T12:48:03.387Z,21
2017-03-16T12:58:03.802Z,15
2017-03-16T13:08:05.864Z,16
2017-03-16T13:18:03.458Z,21
2017-03-16T13:28:03.606Z,18
2017-03-16T13:38:03.577Z,21
2017-03-16T13:48:03.511Z,23
2017-03-16T13:58:03.473Z,19
2017-03-16T14:08:03.781Z,21
2017-03-16T14:18:03.494Z,18
2017-03-16T14:28:03.567Z,16
2017-03-16T14:38:03.636Z,19
2017-03-16T14:48:03.475Z,18
2017-03-16T14:58:03.529Z,21
2017-03-16T15:08:03.538Z,20
2017-03-16T15:18:03.611Z,17
2017-03-16T15:28:03.529Z,19
2017-03-16T15:38:03.597Z,25
2017-03-16T15:48:03.556Z,19
2017-03-16T15:58:03.640Z,17
2017-03-16T16:08:03.566Z,21
2017-03-16T16:18:03.659Z,13
2017-03-16T16:28:03.596Z,13
2017-03-16T16:38:03.646Z,16
2017-03-16T16:48:03.671Z,12
2017-03-16T16:58:03.635Z,14
2017-03-16T17:08:03.646Z,18
2017-03-16T17:18:03.746Z,16
2017-03-16T17:28:03.733Z,15
2017-03-16T17:38:03.710Z,17
2017-03-16T17:48:03.722Z,17
2017-03-16T17:58:03.688Z,20
2017-03-16T18:08:03.825Z,29
2017-03-16T18:18:03.721Z,18
2017-03-16T18:28:03.709Z,19
2017-03-16T18:38:03.712Z,18
2017-03-16T18:48:03.765Z,22
2017-03-16T18:58:03.758Z,24
2017-03-16T19:08:03.772Z,17
2017-03-16T19:18:03.722Z,27
2017-03-16T19:28:03.755Z,23
2017-03-16T19:38:03.761Z,20
2017-03-16T19:48:03.766Z,26
2017-03-16T19:58:03.807Z,27
2017-03-16T20:08:03.847Z,24
2017-03-16T20:18:03.910Z,29
2017-03-16T20:28:03.866Z,25
2017-03-16T20:38:03.880Z,26
2017-03-16T20:48:03.845Z,24
2017-03-16T20:58:04.233Z,20
2017-03-16T21:08:03.880Z,26
2017-03-16T21:18:04.248Z,25
2017-03-16T21:28:03.902Z,27
2017-03-16T21:38:04.189Z,32
2017-03-16T21:48:03.879Z,28
2017-03-16T21:58:03.955Z,32
2017-03-16T22:08:03.942Z,35
2017-03-16T22:18:03.975Z,29
2017-03-16T22:28:03.961Z,35
2017-03-16T22:38:03.941Z,31
2017-03-16T22:48:04.975Z,38
2017-03-16T22:58:04.691Z,38
2017-03-16T23:08:03.974Z,37
2017-03-16T23:18:03.975Z,38
2017-03-16T23:28:04.089Z,35
2017-03-16T23:38:04.097Z,39
2017-03-16T23:48:04.062Z,38
2017-03-16T23:58:04.045Z,55
